Time;durP1;ratioP1;P1;durP2;ratioP2;P2;SDS_P1;SDS_P2;PMS_P1;PMS_P2;Temp;Humidity;BMP_temperature;BMP_pressure;BME280_temperature;BME280_humidity;BME280_pressure;Samples;Min_cycle;Max_cycle;Signal;HPM_P1;HPM_P2
2022/03/31 00:02:09;;;;;;;4.40;3.20;;;;;;;11.83;43.85;100035.06;5049870;28;20080;-59
2022/03/31 00:04:38;;;;;;;4.60;3.25;;;;;;;11.87;43.87;100032.66;5060859;28;20045;-59
2022/03/31 00:07:06;;;;;;;5.22;3.08;;;;;;;11.86;43.83;100028.34;5051643;28;20509;-59
2022/03/31 00:09:34;;;;;;;7.70;3.17;;;;;;;11.84;44.01;100025.91;5060687;28;20060;-60
2022/03/31 00:12:03;;;;;;;6.05;3.50;;;;;;;11.84;43.92;100027.78;5061869;28;20072;-58
2022/03/31 00:14:31;;;;;;;4.95;3.35;;;;;;;11.82;44.09;100024.53;5062379;28;20052;-59
2022/03/31 00:16:58;;;;;;;4.75;2.65;;;;;;;11.80;44.03;100032.84;5064808;28;20174;-59
2022/03/31 00:19:26;;;;;;;4.28;3.25;;;;;;;11.79;44.12;100033.09;5067017;28;20091;-59
2022/03/31 00:21:54;;;;;;;4.93;2.95;;;;;;;11.80;44.05;100037.44;5060650;28;20164;-60
2022/03/31 00:24:22;;;;;;;5.85;3.25;;;;;;;11.78;44.19;100042.25;5062065;28;20120;-59
2022/03/31 00:26:49;;;;;;;4.72;2.85;;;;;;;11.78;44.12;100045.75;5062182;28;20076;-60
2022/03/31 00:29:18;;;;;;;4.05;3.05;;;;;;;11.76;44.04;100039.78;5061273;28;20076;-60
2022/03/31 00:31:46;;;;;;;6.25;3.42;;;;;;;11.73;44.15;100042.97;5058482;28;20044;-59
2022/03/31 00:34:14;;;;;;;4.75;3.42;;;;;;;11.70;44.25;100024.63;5062854;28;20073;-59
2022/03/31 00:36:42;;;;;;;4.70;3.08;;;;;;;11.70;44.28;100028.13;5066255;28;20072;-59
2022/03/31 00:41:55;;;;;;;4.70;3.20;;;;;;;11.65;44.51;100024.53;5064793;28;20056;-60
2022/03/31 00:44:24;;;;;;;6.53;3.60;;;;;;;11.61;44.30;100026.91;5069793;28;20095;-59
2022/03/31 00:46:53;;;;;;;4.90;3.65;;;;;;;11.58;44.46;100032.81;5065323;28;20060;-59
2022/03/31 00:49:22;;;;;;;6.63;3.38;;;;;;;11.57;44.42;100035.75;5066503;28;20122;-60
2022/03/31 00:51:52;;;;;;;4.95;3.60;;;;;;;11.55;44.61;100035.19;5064981;28;20073;-59
2022/03/31 00:54:22;;;;;;;5.60;3.72;;;;;;;11.53;44.82;100029.22;5051291;28;20053;-59
2022/03/31 00:56:51;;;;;;;4.60;3.30;;;;;;;11.51;44.57;100024.09;5060020;28;20084;-61
2022/03/31 00:59:19;;;;;;;5.03;3.70;;;;;;;11.54;44.60;100033.53;5066423;28;20049;-61
2022/03/31 01:01:49;;;;;;;7.13;3.08;;;;;;;11.54;44.67;100037.06;5060894;28;20072;-60
2022/03/31 01:04:17;;;;;;;5.90;3.78;;;;;;;11.52;44.60;100028.41;5065963;28;20040;-59
2022/03/31 01:06:45;;;;;;;6.40;3.53;;;;;;;11.46;44.79;100024.03;5064871;28;20045;-59
2022/03/31 01:09:14;;;;;;;5.30;3.65;;;;;;;11.48;44.75;100026.47;5064926;28;20506;-59
2022/03/31 01:11:45;;;;;;;6.13;3.97;;;;;;;11.45;44.70;100035.03;5051715;28;20096;-59
2022/03/31 01:14:13;;;;;;;5.18;3.47;;;;;;;11.42;44.75;100028.28;5064332;28;20051;-60
2022/03/31 01:16:41;;;;;;;5.22;4.00;;;;;;;11.40;44.83;100022.31;5058037;28;20130;-59
2022/03/31 01:19:12;;;;;;;4.70;3.50;;;;;;;11.37;44.82;100023.63;5066066;28;20068;-59
2022/03/31 01:21:41;;;;;;;5.70;4.05;;;;;;;11.38;44.68;100027.13;5067089;28;20048;-59
2022/03/31 01:24:13;;;;;;;7.25;4.65;;;;;;;11.34;45.08;100013.34;5067747;28;20052;-59
2022/03/31 01:26:43;;;;;;;6.55;4.53;;;;;;;11.34;44.99;100026.00;5059154;28;20049;-60
2022/03/31 01:29:11;;;;;;;8.27;4.13;;;;;;;11.32;45.12;100025.44;5065345;28;20087;-60
2022/03/31 01:31:39;;;;;;;6.32;4.50;;;;;;;11.32;45.23;100020.88;5054573;28;20077;-59
2022/03/31 01:34:07;;;;;;;7.15;4.35;;;;;;;11.31;44.98;100016.53;5061102;28;20318;-61
2022/03/31 01:36:35;;;;;;;6.93;4.70;;;;;;;11.30;45.38;100016.78;5063429;28;20092;-60
2022/03/31 01:39:04;;;;;;;7.93;4.68;;;;;;;11.29;45.29;100012.47;5063231;28;20053;-61
2022/03/31 01:41:33;;;;;;;6.88;4.60;;;;;;;11.30;45.39;100006.03;5056925;28;20079;-59
2022/03/31 01:44:01;;;;;;;7.32;5.32;;;;;;;11.29;45.49;100005.22;5063382;28;20076;-60
2022/03/31 01:46:29;;;;;;;6.95;4.68;;;;;;;11.29;45.49;100005.22;5061704;28;20087;-59
2022/03/31 01:48:57;;;;;;;7.07;4.53;;;;;;;11.28;45.79;100000.91;5069697;28;20049;-59
2022/03/31 01:51:25;;;;;;;7.18;4.90;;;;;;;11.25;45.52;99989.81;5064504;28;20068;-59
2022/03/31 01:53:53;;;;;;;7.32;5.43;;;;;;;11.23;45.53;100000.00;5064380;28;20095;-59
2022/03/31 01:56:20;;;;;;;7.70;4.80;;;;;;;11.21;45.63;99984.13;5066448;28;20140;-58
2022/03/31 01:58:49;;;;;;;8.68;5.35;;;;;;;11.17;45.88;99991.06;5064766;28;20115;-59
2022/03/31 02:01:17;;;;;;;8.02;5.40;;;;;;;11.16;45.84;99983.22;5062908;28;20040;-59
2022/03/31 02:03:45;;;;;;;8.75;5.30;;;;;;;11.13;45.85;99983.72;5058737;28;20045;-59
2022/03/31 02:06:13;;;;;;;9.63;5.43;;;;;;;11.09;45.89;99983.41;5062564;28;20048;-59
2022/03/31 02:08:40;;;;;;;7.68;5.15;;;;;;;11.09;46.25;99975.34;5051197;28;20066;-59
2022/03/31 02:11:08;;;;;;;9.20;6.13;;;;;;;11.08;46.42;99973.72;5063058;28;20057;-60
2022/03/31 02:13:36;;;;;;;8.48;5.57;;;;;;;11.06;46.43;99973.94;5063903;28;20084;-59
2022/03/31 02:16:06;;;;;;;9.10;5.63;;;;;;;11.06;46.55;99981.19;5063634;28;20107;-59
2022/03/31 02:18:34;;;;;;;8.30;5.20;;;;;;;11.05;46.09;99972.31;5063240;28;20076;-59
2022/03/31 02:21:01;;;;;;;7.40;5.63;;;;;;;11.05;46.50;99977.69;5059587;28;20091;-59
2022/03/31 02:23:29;;;;;;;9.32;6.05;;;;;;;11.03;46.31;99971.75;5062472;28;20093;-59
2022/03/31 02:25:57;;;;;;;8.88;5.95;;;;;;;10.97;46.71;99955.78;5063395;28;20049;-60
2022/03/31 02:28:25;;;;;;;8.63;5.80;;;;;;;10.99;46.81;99951.78;5062844;28;20077;-59
2022/03/31 02:30:52;;;;;;;9.07;6.30;;;;;;;10.99;46.96;99950.97;5063466;28;20068;-59
2022/03/31 02:33:21;;;;;;;12.25;6.82;;;;;;;10.97;46.63;99947.72;5049355;28;20084;-60
2022/03/31 02:35:49;;;;;;;9.60;6.45;;;;;;;10.95;46.88;99955.22;5053539;28;20394;-60
2022/03/31 02:38:17;;;;;;;11.43;6.40;;;;;;;10.92;46.77;99947.66;5061717;28;20080;-59
2022/03/31 02:40:44;;;;;;;10.82;7.60;;;;;;;10.88;46.94;99950.00;5063584;28;20080;-60
2022/03/31 02:43:12;;;;;;;10.35;7.43;;;;;;;10.88;46.92;99951.88;5062070;28;20073;-60
2022/03/31 02:45:40;;;;;;;11.15;7.38;;;;;;;10.86;47.13;99954.81;5061016;28;20593;-60
2022/03/31 02:48:08;;;;;;;11.07;7.75;;;;;;;10.85;47.35;99955.06;5063765;28;20053;-59
2022/03/31 02:50:38;;;;;;;12.18;7.55;;;;;;;10.83;47.46;99957.19;5062828;28;20053;-59
2022/03/31 02:55:51;;;;;;;11.63;8.05;;;;;;;10.79;47.01;99967.63;5052204;28;20053;-60
2022/03/31 02:58:19;;;;;;;13.70;8.80;;;;;;;10.79;47.18;99964.13;5063573;28;20049;-59
2022/03/31 03:00:48;;;;;;;12.07;9.07;;;;;;;10.76;47.56;99957.34;5061287;28;20071;-59
2022/03/31 03:03:16;;;;;;;13.13;8.52;;;;;;;10.76;47.29;99952.78;5060338;28;20045;-59
2022/03/31 03:05:46;;;;;;;11.85;7.57;;;;;;;10.75;47.52;99947.66;5063736;28;20063;-58
2022/03/31 03:08:14;;;;;;;14.32;7.88;;;;;;;10.74;47.06;99946.84;5062737;28;20068;-59
2022/03/31 03:10:43;;;;;;;12.30;7.47;;;;;;;10.73;47.20;99942.53;5062137;28;20073;-59
2022/03/31 03:13:10;;;;;;;12.00;8.07;;;;;;;10.72;47.53;99946.28;5064800;28;20041;-60
2022/03/31 03:15:38;;;;;;;11.88;7.53;;;;;;;10.70;47.51;99939.53;5062816;28;20080;-60
2022/03/31 03:18:08;;;;;;;10.20;7.18;;;;;;;10.70;47.64;99934.16;5064899;28;20060;-60
2022/03/31 03:20:36;;;;;;;18.77;8.63;;;;;;;10.69;47.57;99937.88;5065086;28;20115;-60
2022/03/31 03:23:05;;;;;;;9.38;6.47;;;;;;;10.67;47.85;99930.06;5062241;28;20101;-60
2022/03/31 03:25:33;;;;;;;9.48;6.95;;;;;;;10.66;47.66;99935.69;5060912;28;20063;-59
2022/03/31 03:28:01;;;;;;;9.70;6.30;;;;;;;10.63;48.12;99930.81;5061461;28;20052;-60
2022/03/31 03:30:29;;;;;;;10.27;7.03;;;;;;;10.64;47.55;99927.88;5062815;28;20072;-60
2022/03/31 03:32:57;;;;;;;9.88;6.22;;;;;;;10.63;47.70;99931.63;5061927;28;20052;-58
2022/03/31 03:35:25;;;;;;;12.20;7.25;;;;;;;10.59;47.73;99925.09;5064000;28;20124;-60
2022/03/31 03:37:52;;;;;;;11.13;6.95;;;;;;;10.57;48.18;99927.22;5061763;28;20077;-59
2022/03/31 03:40:22;;;;;;;9.98;6.28;;;;;;;10.55;48.14;99923.16;5062862;28;20118;-59
2022/03/31 03:42:50;;;;;;;9.00;6.95;;;;;;;10.56;48.21;99927.47;5059797;28;20069;-59
2022/03/31 03:45:17;;;;;;;9.63;6.68;;;;;;;10.54;48.13;99925.03;5063849;28;20082;-60
2022/03/31 03:47:48;;;;;;;9.50;6.95;;;;;;;10.53;47.90;99930.66;5062325;28;20117;-60
2022/03/31 03:50:16;;;;;;;10.93;7.13;;;;;;;10.51;48.03;99922.81;5062581;28;20052;-59
2022/03/31 03:52:44;;;;;;;11.95;6.90;;;;;;;10.52;48.37;99924.47;5061848;28;20251;-59
2022/03/31 03:55:12;;;;;;;9.48;6.93;;;;;;;10.52;48.06;99935.19;5062283;28;20399;-59
2022/03/31 03:57:41;;;;;;;9.82;7.20;;;;;;;10.52;48.33;99931.69;5061562;28;20052;-59
2022/03/31 04:00:10;;;;;;;9.10;6.05;;;;;;;10.51;48.08;99935.44;5062957;28;20060;-60
2022/03/31 04:02:39;;;;;;;9.48;6.18;;;;;;;10.48;48.00;99934.06;5061411;28;20049;-60
2022/03/31 04:05:08;;;;;;;10.90;6.57;;;;;;;10.46;48.40;99933.50;5064789;28;20049;-60
2022/03/31 04:07:35;;;;;;;8.35;6.05;;;;;;;10.47;48.47;99932.44;5065351;28;20367;-60
2022/03/31 04:10:03;;;;;;;9.07;6.15;;;;;;;10.47;48.64;99931.63;5063662;28;20483;-59
2022/03/31 04:12:32;;;;;;;11.05;6.38;;;;;;;10.44;49.11;99931.03;5065217;28;20060;-59
2022/03/31 04:15:02;;;;;;;8.70;6.20;;;;;;;10.42;49.16;99927.78;5059960;28;20472;-60
2022/03/31 04:17:30;;;;;;;9.68;6.13;;;;;;;10.40;48.44;99932.59;5062577;28;20132;-59
2022/03/31 04:19:57;;;;;;;8.10;5.00;;;;;;;10.31;48.84;99926.00;5068599;28;20041;-59
2022/03/31 04:22:25;;;;;;;6.70;4.68;;;;;;;10.33;49.15;99950.75;5076507;28;20455;-60
2022/03/31 04:24:53;;;;;;;8.05;4.20;;;;;;;10.29;48.95;99943.44;5052468;28;20105;-60
2022/03/31 04:27:21;;;;;;;8.63;3.80;;;;;;;10.24;49.01;99938.78;5065261;28;20383;-60
2022/03/31 04:29:48;;;;;;;4.15;3.40;;;;;;;10.20;49.07;99943.00;5063587;28;20049;-61
2022/03/31 04:32:17;;;;;;;8.23;3.50;;;;;;;10.17;49.22;99937.28;5062126;28;20459;-60
2022/03/31 04:34:45;;;;;;;5.45;2.88;;;;;;;10.16;49.79;99935.66;5066147;28;20084;-60
2022/03/31 04:37:13;;;;;;;4.25;2.90;;;;;;;10.18;49.40;99938.91;5060488;28;20069;-60
2022/03/31 04:39:41;;;;;;;4.68;2.70;;;;;;;10.17;49.04;99939.97;5075471;28;20407;-59
2022/03/31 04:42:09;;;;;;;3.67;2.83;;;;;;;10.10;48.68;99937.41;5052378;28;20052;-60
2022/03/31 04:44:37;;;;;;;4.45;2.47;;;;;;;10.12;49.20;99954.09;5066087;28;20041;-60
2022/03/31 04:47:06;;;;;;;3.63;2.63;;;;;;;10.07;48.97;99954.00;5064834;28;20053;-61
2022/03/31 04:49:35;;;;;;;4.82;1.98;;;;;;;10.07;48.90;99951.31;5067216;28;20056;-60
2022/03/31 04:52:04;;;;;;;4.57;2.67;;;;;;;10.04;48.63;99947.25;5056772;28;20455;-59
2022/03/31 04:54:32;;;;;;;3.03;2.30;;;;;;;10.05;49.27;99953.44;5065511;28;20040;-60
2022/03/31 04:56:59;;;;;;;2.72;2.17;;;;;;;10.05;49.23;99950.75;5054571;28;20065;-59
2022/03/31 04:59:27;;;;;;;4.32;2.20;;;;;;;10.04;48.60;99949.94;5061850;28;20091;-59
2022/03/31 05:01:55;;;;;;;2.97;1.88;;;;;;;10.03;48.50;99947.50;5064129;28;20079;-59
2022/03/31 05:04:22;;;;;;;3.08;2.25;;;;;;;9.97;48.81;99954.63;5062375;28;20048;-60
2022/03/31 05:06:52;;;;;;;1.55;1.45;;;;;;;9.89;48.88;99951.53;5051684;28;20068;-60
2022/03/31 05:09:21;;;;;;;2.40;1.55;;;;;;;9.84;48.81;99954.09;5063174;28;20073;-60
2022/03/31 05:11:49;;;;;;;2.25;1.63;;;;;;;9.89;48.82;99960.38;5062927;28;20080;-58
2022/03/31 05:14:17;;;;;;;2.20;1.30;;;;;;;9.86;48.78;99966.22;5057776;28;20053;-58
2022/03/31 05:16:44;;;;;;;2.15;1.45;;;;;;;9.90;48.95;99962.00;5057957;28;20120;-58
2022/03/31 05:19:12;;;;;;;2.17;1.33;;;;;;;10.10;48.35;99958.91;5063590;28;20060;-59
2022/03/31 05:21:40;;;;;;;1.70;1.23;;;;;;;10.11;47.88;99923.75;5063444;28;21040;-59
2022/03/31 05:24:09;;;;;;;1.27;1.17;;;;;;;10.40;47.35;99956.75;5062346;28;20045;-59
2022/03/31 05:26:37;;;;;;;1.20;1.10;;;;;;;10.49;46.79;99956.38;5063551;28;20048;-60
2022/03/31 05:29:05;;;;;;;2.05;1.27;;;;;;;10.37;46.86;99945.72;5058040;28;20056;-59
2022/03/31 05:31:33;;;;;;;1.85;1.30;;;;;;;10.41;46.95;99957.56;5059970;28;20060;-60
2022/03/31 05:34:00;;;;;;;1.67;1.48;;;;;;;10.35;47.40;99959.38;5063865;28;20053;-59
2022/03/31 05:36:28;;;;;;;1.27;1.17;;;;;;;10.24;47.74;99957.59;5049519;28;20361;-59
2022/03/31 05:38:56;;;;;;;1.42;1.17;;;;;;;10.22;47.74;99958.88;5057180;28;20049;-59
2022/03/31 05:41:26;;;;;;;1.20;1.10;;;;;;;10.15;47.88;99960.88;5059812;28;20061;-60
2022/03/31 05:43:53;;;;;;;2.15;1.40;;;;;;;10.12;47.88;99967.53;5052601;28;20110;-61
2022/03/31 05:46:22;;;;;;;1.23;1.13;;;;;;;10.03;48.29;99950.19;5075617;28;20041;-60
2022/03/31 05:48:50;;;;;;;1.55;1.20;;;;;;;10.04;48.26;99962.53;4713497;28;9999996;-60
2022/03/31 05:51:19;;;;;;;1.77;1.40;;;;;;;10.01;48.66;99960.34;5061356;28;20081;-60
2022/03/31 05:53:46;;;;;;;1.20;1.10;;;;;;;9.96;47.97;99950.31;5060089;28;20049;-60
2022/03/31 05:56:14;;;;;;;1.73;1.30;;;;;;;9.92;48.12;99959.91;5054402;28;20076;-59
2022/03/31 05:58:43;;;;;;;2.00;1.50;;;;;;;9.90;49.00;99955.84;5057615;28;20076;-59
2022/03/31 06:01:11;;;;;;;1.30;1.20;;;;;;;9.90;48.46;99962.00;5053485;28;20092;-59
2022/03/31 06:03:39;;;;;;;2.20;1.50;;;;;;;9.84;48.54;99957.59;5050188;28;20049;-60
2022/03/31 06:06:07;;;;;;;2.15;1.35;;;;;;;9.88;48.80;99963.31;5048148;28;20045;-59
2022/03/31 06:08:34;;;;;;;2.35;1.23;;;;;;;9.81;48.96;99960.75;5061855;28;20075;-58
2022/03/31 06:11:02;;;;;;;1.65;1.27;;;;;;;9.78;48.30;99961.25;5059743;28;20072;-58
2022/03/31 06:13:30;;;;;;;1.65;1.20;;;;;;;9.74;48.98;99960.91;5056017;28;20068;-58
2022/03/31 06:15:59;;;;;;;2.17;1.50;;;;;;;9.70;49.17;99959.75;5057087;28;20037;-59
2022/03/31 06:18:27;;;;;;;1.52;1.25;;;;;;;9.67;49.50;99967.44;5067438;28;20049;-60
2022/03/31 06:20:55;;;;;;;4.72;1.58;;;;;;;9.66;48.78;99968.50;5066226;28;20084;-59
2022/03/31 06:23:23;;;;;;;2.45;1.25;;;;;;;9.65;49.40;99969.56;5063820;28;20105;-59
2022/03/31 06:25:52;;;;;;;2.63;1.45;;;;;;;9.64;49.00;99965.25;5061842;28;20080;-60
2022/03/31 06:28:20;;;;;;;3.47;1.40;;;;;;;9.66;48.59;99971.19;5072308;28;20056;-60
2022/03/31 06:30:48;;;;;;;1.90;1.42;;;;;;;9.64;48.65;99971.44;5057759;28;20053;-59
2022/03/31 06:33:20;;;;;;;1.40;1.30;;;;;;;9.65;48.65;99974.91;5056810;28;20059;-59
2022/03/31 06:35:49;;;;;;;2.00;1.38;;;;;;;9.64;49.06;99973.28;5063847;28;20049;-60
2022/03/31 06:38:17;;;;;;;2.80;1.70;;;;;;;9.62;48.74;99968.16;5061075;28;20148;-59
2022/03/31 06:41:06;;;;;;;1.40;1.13;;;;;;;9.61;48.65;99977.25;5044304;28;20053;-60
2022/03/31 06:43:33;;;;;;;1.65;1.20;;;;;;;9.56;48.69;99971.78;5059570;28;20176;-59
2022/03/31 06:46:01;;;;;;;1.70;1.05;;;;;;;9.54;49.16;99971.22;5043508;28;20077;-59
2022/03/31 06:48:30;;;;;;;1.23;1.10;;;;;;;9.52;49.26;99975.19;5045250;28;20491;-59
2022/03/31 06:50:59;;;;;;;1.88;1.30;;;;;;;9.36;49.45;99961.44;5063105;28;20069;-60
2022/03/31 06:53:27;;;;;;;2.38;1.30;;;;;;;9.44;49.13;99987.91;5061217;28;20052;-59
2022/03/31 06:55:55;;;;;;;2.25;1.30;;;;;;;9.40;49.29;99975.19;5063468;28;20049;-62
2022/03/31 06:58:25;;;;;;;3.25;1.20;;;;;;;9.37;48.89;99979.16;5063345;28;20516;-60
2022/03/31 07:00:54;;;;;;;1.38;1.25;;;;;;;9.39;49.81;99976.25;5060784;28;20083;-60
2022/03/31 07:03:22;;;;;;;2.00;1.10;;;;;;;9.41;49.61;99968.78;5062987;28;20071;-59
2022/03/31 07:05:51;;;;;;;2.78;1.27;;;;;;;9.37;49.34;99971.13;5063600;28;20081;-58
2022/03/31 07:08:19;;;;;;;4.80;1.30;;;;;;;9.36;49.68;99971.34;5062773;28;20080;-63
2022/03/31 07:10:47;;;;;;;1.67;1.20;;;;;;;9.31;49.75;99968.56;5062275;28;20045;-60
2022/03/31 07:13:15;;;;;;;1.92;1.52;;;;;;;9.34;49.68;99970.78;5059443;28;20048;-61
2022/03/31 07:15:43;;;;;;;1.67;1.48;;;;;;;9.30;49.81;99966.94;5062743;28;20060;-60
2022/03/31 07:18:11;;;;;;;1.40;1.30;;;;;;;9.33;49.78;99974.50;5063025;28;20053;-60
2022/03/31 07:20:39;;;;;;;1.45;1.35;;;;;;;9.33;49.79;99977.19;5063242;28;20056;-61
2022/03/31 07:23:08;;;;;;;1.60;1.50;;;;;;;9.32;49.51;99979.06;5062115;28;20049;-61
2022/03/31 07:25:36;;;;;;;1.25;1.15;;;;;;;9.29;49.69;99978.72;5062071;28;20064;-61
2022/03/31 07:28:05;;;;;;;1.40;1.30;;;;;;;9.27;49.94;99978.13;5062143;28;20135;-63
2022/03/31 07:30:33;;;;;;;1.90;1.50;;;;;;;9.25;49.53;99973.00;5060624;28;20375;-62
2022/03/31 07:33:03;;;;;;;1.67;1.50;;;;;;;9.12;49.96;99954.47;5060375;28;20045;-63
2022/03/31 07:35:33;;;;;;;2.00;1.58;;;;;;;9.25;49.43;99969.50;5058383;28;20085;-62
2022/03/31 07:38:03;;;;;;;1.35;1.20;;;;;;;9.23;49.87;99960.88;5060516;28;20075;-61
2022/03/31 07:40:32;;;;;;;4.35;1.52;;;;;;;9.25;49.22;99973.00;5060006;28;20194;-63
2022/03/31 07:43:01;;;;;;;1.55;1.08;;;;;;;9.21;49.28;99965.66;5055322;28;20040;-63
2022/03/31 07:45:29;;;;;;;1.67;1.50;;;;;;;9.21;49.17;99979.88;5058002;28;20044;-63
2022/03/31 07:47:57;;;;;;;1.77;1.40;;;;;;;9.19;50.14;99981.16;5060530;28;20059;-64
2022/03/31 07:50:25;;;;;;;1.58;1.38;;;;;;;9.18;49.80;99979.53;5054886;28;20053;-62
2022/03/31 07:52:53;;;;;;;1.50;1.40;;;;;;;9.18;50.30;99971.50;5060778;28;20052;-62
2022/03/31 07:55:20;;;;;;;2.67;1.42;;;;;;;9.17;50.04;99976.03;5063106;28;20045;-61
2022/03/31 07:57:51;;;;;;;1.48;1.27;;;;;;;9.16;49.85;99969.03;5058098;28;20080;-63
2022/03/31 08:00:20;;;;;;;1.90;1.20;;;;;;;9.12;49.84;99975.91;5056967;28;20072;-63
2022/03/31 08:02:50;;;;;;;1.90;1.33;;;;;;;9.11;50.20;99985.81;5060328;28;20115;-63
2022/03/31 08:05:20;;;;;;;1.45;1.25;;;;;;;8.98;49.85;99961.94;5059033;28;20083;-63
2022/03/31 08:07:49;;;;;;;1.25;1.15;;;;;;;9.03;50.08;99975.47;5056599;28;20072;-63
2022/03/31 08:10:18;;;;;;;1.38;1.27;;;;;;;9.05;50.24;99970.69;5058177;28;20040;-64
2022/03/31 08:12:46;;;;;;;2.67;1.33;;;;;;;9.06;50.23;99976.84;5060133;28;20071;-62
2022/03/31 08:15:18;;;;;;;1.20;1.10;;;;;;;9.05;50.13;99969.88;5058142;28;20072;-61
2022/03/31 08:17:47;;;;;;;1.70;1.23;;;;;;;9.05;50.74;99970.69;5058896;28;20136;-62
2022/03/31 08:20:16;;;;;;;1.55;1.10;;;;;;;9.05;50.10;99970.69;5054214;28;20048;-64
2022/03/31 08:22:44;;;;;;;1.30;1.20;;;;;;;9.03;50.58;99972.78;5060317;28;20056;-63
2022/03/31 08:25:14;;;;;;;1.50;1.23;;;;;;;8.99;50.11;99968.13;5057383;28;20045;-62
2022/03/31 08:27:43;;;;;;;1.30;1.20;;;;;;;8.97;50.86;99972.88;5060237;28;20056;-63
2022/03/31 08:30:13;;;;;;;3.30;1.45;;;;;;;8.96;50.78;99976.63;5061341;28;20041;-62
2022/03/31 08:32:43;;;;;;;1.92;1.40;;;;;;;8.97;50.43;99973.72;5054019;28;20041;-63
2022/03/31 08:35:12;;;;;;;2.50;1.63;;;;;;;8.99;50.35;99971.59;5061793;28;20132;-64
2022/03/31 08:37:41;;;;;;;1.77;1.20;;;;;;;8.99;50.79;99962.75;5059813;28;20071;-62
2022/03/31 08:40:11;;;;;;;2.00;1.35;;;;;;;8.97;50.30;99973.72;5058343;28;20088;-63
2022/03/31 08:42:39;;;;;;;1.77;1.60;;;;;;;8.99;50.23;99974.28;5056365;28;20041;-62
2022/03/31 08:45:12;;;;;;;1.23;1.13;;;;;;;8.94;49.93;99976.84;5061972;28;20068;-62
2022/03/31 08:47:43;;;;;;;1.58;1.35;;;;;;;8.91;50.37;99980.00;5055114;28;20073;-63
2022/03/31 08:50:17;;;;;;;2.50;1.50;;;;;;;8.87;50.85;99972.66;5059068;28;20057;-62
2022/03/31 08:52:45;;;;;;;1.58;1.30;;;;;;;8.85;50.51;99975.56;5060819;28;20076;-63
2022/03/31 08:55:13;;;;;;;1.98;1.30;;;;;;;8.87;50.44;99980.69;5066309;28;20481;-63
2022/03/31 08:57:42;;;;;;;4.10;1.42;;;;;;;8.85;50.64;99978.25;5062272;28;20075;-63
2022/03/31 09:00:12;;;;;;;2.47;1.73;;;;;;;8.84;50.99;99981.97;5062358;28;20045;-63
2022/03/31 09:02:53;;;;;;;2.90;1.60;;;;;;;8.86;50.73;99979.06;5063891;28;20075;-63
2022/03/31 09:05:21;;;;;;;1.60;1.40;;;;;;;8.82;50.52;99982.19;5062773;28;20069;-63
2022/03/31 09:07:53;;;;;;;2.38;1.40;;;;;;;8.82;51.32;99986.75;5057948;28;20452;-62
2022/03/31 09:10:29;;;;;;;1.17;1.05;;;;;;;8.84;51.06;99984.66;5064100;28;20171;-61
2022/03/31 09:12:58;;;;;;;1.58;1.40;;;;;;;8.84;51.74;99984.66;5063008;28;20068;-61
2022/03/31 09:15:32;;;;;;;1.58;1.45;;;;;;;8.80;51.69;99986.97;5062122;28;20072;-62
2022/03/31 09:18:01;;;;;;;1.60;1.42;;;;;;;8.80;51.28;99986.97;5063858;28;20049;-62
2022/03/31 09:20:36;;;;;;;2.20;1.35;;;;;;;8.80;51.82;99991.50;5061988;28;20421;-62
2022/03/31 09:23:04;;;;;;;1.40;1.30;;;;;;;8.78;51.25;99985.56;5064114;28;20049;-61
2022/03/31 09:25:33;;;;;;;1.80;1.20;;;;;;;8.80;51.81;99986.16;5064276;28;20041;-62
2022/03/31 09:28:12;;;;;;;1.30;1.20;;;;;;;8.80;51.64;99980.78;5062583;28;20067;-62
2022/03/31 09:30:48;;;;;;;2.33;1.13;;;;;;;8.79;51.40;99992.56;5062995;28;20084;-62
2022/03/31 09:33:32;;;;;;;2.05;1.23;;;;;;;8.76;51.35;99988.47;5050804;28;20047;-62
2022/03/31 09:36:02;;;;;;;3.28;1.50;;;;;;;8.77;51.73;99986.63;5063425;28;20041;-62
2022/03/31 09:38:32;;;;;;;1.83;1.50;;;;;;;8.78;51.65;99983.72;5059589;28;20045;-62
2022/03/31 09:41:01;;;;;;;1.63;1.10;;;;;;;8.79;52.01;99989.88;5065971;28;20041;-61
2022/03/31 09:43:38;;;;;;;1.73;1.30;;;;;;;8.78;52.04;99990.94;5058705;28;20075;-61
2022/03/31 09:46:16;;;;;;;1.58;1.45;;;;;;;8.77;52.13;99992.78;5058354;28;20126;-62
2022/03/31 09:48:48;;;;;;;1.38;1.20;;;;;;;8.74;51.93;99992.44;5057088;28;20044;-62
2022/03/31 09:51:16;;;;;;;2.03;1.48;;;;;;;8.76;52.53;100001.88;5062169;28;20048;-63
2022/03/31 09:53:44;;;;;;;1.77;1.50;;;;;;;8.76;52.03;100003.75;5060879;28;20075;-61
2022/03/31 09:56:12;;;;;;;2.03;1.48;;;;;;;8.70;52.51;99996.63;5062215;28;20060;-62
2022/03/31 09:58:46;;;;;;;2.13;1.77;;;;;;;8.69;52.78;99990.44;5060008;28;20053;-61
2022/03/31 10:01:15;;;;;;;5.00;1.55;;;;;;;8.70;52.74;99991.25;5062971;28;20056;-63
2022/03/31 10:03:43;;;;;;;6.90;1.60;;;;;;;8.69;52.37;99990.44;5061346;28;20053;-62
2022/03/31 10:06:14;;;;;;;3.95;1.40;;;;;;;8.69;52.59;99984.28;5063607;28;20060;-62
2022/03/31 10:08:44;;;;;;;3.50;1.75;;;;;;;8.70;52.99;99988.59;5058550;28;20050;-62
2022/03/31 10:11:19;;;;;;;3.22;1.85;;;;;;;8.74;52.95;99979.84;5057558;28;20080;-62
2022/03/31 10:13:57;;;;;;;2.55;1.85;;;;;;;8.76;52.73;99979.63;5065041;28;20107;-62
2022/03/31 10:16:35;;;;;;;1.98;1.48;;;;;;;8.74;52.83;99982.53;5063851;28;20087;-62
2022/03/31 10:19:03;;;;;;;2.28;1.63;;;;;;;8.73;53.44;99980.09;5060977;28;20067;-62
2022/03/31 10:21:32;;;;;;;2.90;1.70;;;;;;;8.67;53.54;99976.47;5064274;28;20452;-62
2022/03/31 10:26:45;;;;;;;4.82;2.60;;;;;;;8.67;52.87;99987.19;5064247;28;20059;-63
2022/03/31 10:29:14;;;;;;;2.17;1.70;;;;;;;8.66;53.46;99988.25;5062724;28;20072;-63
2022/03/31 10:31:44;;;;;;;3.90;1.60;;;;;;;8.68;53.71;99983.47;5050221;28;20100;-63
2022/03/31 10:34:14;;;;;;;2.35;1.90;;;;;;;8.71;53.59;99995.56;5053969;28;20050;-64
2022/03/31 10:36:45;;;;;;;3.03;1.85;;;;;;;8.70;53.54;99986.72;5044350;28;20052;-63
2022/03/31 10:39:18;;;;;;;2.55;1.60;;;;;;;8.72;53.18;99986.50;5055395;28;20052;-63
2022/03/31 10:41:47;;;;;;;3.47;1.70;;;;;;;8.63;53.38;99972.66;5062554;28;20037;-63
2022/03/31 10:44:19;;;;;;;2.70;1.90;;;;;;;8.58;53.32;99990.47;5059891;28;20041;-63
2022/03/31 10:46:59;;;;;;;2.90;1.85;;;;;;;8.56;54.08;99979.16;5066870;28;20056;-63
2022/03/31 10:49:27;;;;;;;2.83;1.67;;;;;;;8.55;53.43;99981.03;5063370;28;20443;-63
2022/03/31 10:51:56;;;;;;;2.45;1.70;;;;;;;8.55;53.72;99985.56;5062661;28;20041;-63
2022/03/31 10:54:27;;;;;;;3.15;1.95;;;;;;;8.54;54.07;99983.94;5063433;28;20073;-64
2022/03/31 10:57:06;;;;;;;2.45;1.83;;;;;;;8.54;53.85;99981.25;5063123;28;20053;-63
2022/03/31 10:59:35;;;;;;;3.15;2.05;;;;;;;8.53;53.78;99980.44;5063831;28;20044;-64
2022/03/31 11:02:12;;;;;;;2.80;1.77;;;;;;;8.52;53.77;99975.31;5061528;28;20069;-63
2022/03/31 11:04:45;;;;;;;3.47;2.20;;;;;;;8.51;53.71;99977.16;5060683;28;20470;-63
2022/03/31 11:07:19;;;;;;;3.20;1.83;;;;;;;8.50;54.25;99967.50;5063688;28;20054;-63
2022/03/31 11:09:46;;;;;;;3.00;1.92;;;;;;;8.49;53.87;99971.22;5062481;28;20053;-63
2022/03/31 11:12:26;;;;;;;2.38;1.80;;;;;;;8.51;53.53;99973.69;5055742;28;20110;-63
2022/03/31 11:14:56;;;;;;;1.77;1.40;;;;;;;8.48;54.03;99970.41;5063045;28;20053;-63
2022/03/31 11:17:25;;;;;;;2.67;1.73;;;;;;;8.34;54.50;99944.88;5063004;28;20053;-63
2022/03/31 11:19:55;;;;;;;4.03;2.17;;;;;;;8.51;54.06;99962.97;5063098;28;20052;-63
2022/03/31 11:22:27;;;;;;;3.22;2.00;;;;;;;8.54;54.35;99963.31;5063109;28;20045;-63
2022/03/31 11:24:56;;;;;;;2.20;1.83;;;;;;;8.56;53.46;99955.06;5062805;28;20076;-63
2022/03/31 11:27:37;;;;;;;2.78;1.95;;;;;;;8.53;54.43;99955.50;5062202;28;20077;-61
2022/03/31 11:30:07;;;;;;;3.50;1.90;;;;;;;8.51;53.58;99958.44;5063130;28;20175;-63
2022/03/31 11:32:36;;;;;;;3.70;1.90;;;;;;;8.46;54.57;99952.94;5053276;28;20076;-62
2022/03/31 11:35:04;;;;;;;3.00;1.92;;;;;;;8.43;54.77;99951.53;5062730;28;20048;-62
2022/03/31 11:37:33;;;;;;;2.28;1.80;;;;;;;8.39;55.11;99938.84;5070760;28;20080;-63
2022/03/31 11:40:01;;;;;;;1.95;1.50;;;;;;;8.41;54.50;99942.09;5062924;28;20095;-63
2022/03/31 11:42:28;;;;;;;3.40;2.25;;;;;;;8.41;54.95;99947.47;5062437;28;20155;-63
2022/03/31 11:44:56;;;;;;;2.58;1.70;;;;;;;8.40;54.38;99948.50;5062487;28;20068;-62
2022/03/31 11:47:24;;;;;;;2.47;1.90;;;;;;;8.37;54.81;99947.09;5072754;28;20418;-63
2022/03/31 11:49:59;;;;;;;2.85;1.80;;;;;;;8.40;55.19;99949.31;5062719;28;20045;-63
2022/03/31 11:52:33;;;;;;;3.03;1.75;;;;;;;8.42;54.67;99944.56;5062496;28;20470;-63
2022/03/31 11:55:03;;;;;;;2.28;1.60;;;;;;;8.43;54.80;99948.88;5058081;28;20068;-63